createdAt,value
2023-02-11T00:01:50.464Z,68.59
2023-02-11T00:03:53.733Z,68.62
2023-02-11T00:06:01.021Z,68.63
2023-02-11T00:08:03.880Z,68.81
2023-02-11T00:10:08.991Z,68.97
2023-02-11T00:12:12.153Z,68.99
2023-02-11T00:14:15.126Z,68.84
2023-02-11T00:16:20.895Z,69.01
2023-02-11T00:18:24.370Z,69.08
2023-02-11T00:20:27.278Z,68.94
2023-02-11T00:22:31.757Z,68.68
2023-02-11T00:24:36.239Z,68.79
2023-02-11T00:26:39.253Z,68.67
2023-02-11T00:28:42.759Z,68.68
2023-02-11T00:30:54.976Z,68.60
2023-02-11T00:32:58.099Z,68.71
2023-02-11T00:35:01.414Z,68.59
2023-02-11T00:37:05.458Z,68.47
2023-02-11T00:39:09.424Z,68.59
2023-02-11T00:41:16.128Z,68.55
2023-02-11T00:43:18.705Z,68.68
2023-02-11T00:45:21.560Z,68.68
2023-02-11T00:47:24.538Z,68.66
2023-02-11T00:49:27.384Z,68.72
2023-02-11T00:51:30.228Z,68.78
2023-02-11T00:53:36.171Z,68.75
2023-02-11T00:55:38.822Z,68.83
2023-02-11T00:57:41.676Z,68.75
2023-02-11T00:59:44.489Z,69.00
2023-02-11T01:01:47.164Z,68.90
2023-02-11T01:03:49.861Z,69.09
2023-02-11T01:05:53.047Z,69.34
2023-02-11T01:07:56.249Z,69.46
2023-02-11T01:09:59.728Z,69.56
2023-02-11T01:12:05.971Z,69.55
2023-02-11T01:14:09.250Z,69.37
2023-02-11T01:16:14.875Z,69.51
2023-02-11T01:18:17.826Z,69.41
2023-02-11T01:20:25.696Z,69.24
2023-02-11T01:22:29.556Z,69.15
2023-02-11T01:24:32.402Z,69.22
2023-02-11T01:26:36.082Z,69.20
2023-02-11T01:28:40.188Z,69.14
2023-02-11T01:30:43.654Z,69.17
2023-02-11T01:32:46.496Z,69.16
2023-02-11T01:34:50.349Z,69.10
2023-02-11T01:37:03.170Z,69.06
2023-02-11T01:39:06.007Z,69.12
2023-02-11T01:41:17.243Z,69.08
2023-02-11T01:43:20.971Z,69.16
2023-02-11T01:45:48.917Z,69.09
2023-02-11T01:47:51.837Z,69.10
2023-02-11T01:50:01.835Z,69.21
2023-02-11T01:52:20.126Z,69.32
2023-02-11T01:54:45.357Z,69.29
2023-02-11T01:57:10.386Z,69.23
2023-02-11T01:59:39.940Z,69.24
2023-02-11T02:01:48.651Z,69.24
2023-02-11T02:03:56.624Z,69.15
2023-02-11T02:06:02.660Z,69.24
2023-02-11T02:08:14.822Z,69.26
2023-02-11T02:10:22.697Z,69.26
2023-02-11T02:12:25.397Z,69.25
2023-02-11T02:14:29.053Z,69.20
2023-02-11T02:16:34.764Z,69.20
2023-02-11T02:19:19.759Z,69.26
2023-02-11T02:21:44.301Z,69.36
2023-02-11T02:24:00.974Z,69.26
2023-02-11T02:26:09.654Z,69.27
2023-02-11T02:28:34.367Z,69.27
2023-02-11T02:30:58.510Z,69.50
2023-02-11T02:33:23.244Z,69.60
2023-02-11T02:35:46.005Z,69.62
2023-02-11T02:38:20.168Z,69.68
2023-02-11T02:40:32.765Z,69.72
2023-02-11T02:42:36.639Z,69.76
2023-02-11T02:44:39.689Z,69.52
2023-02-11T02:46:42.542Z,69.53
2023-02-11T02:48:45.863Z,69.56
2023-02-11T02:50:50.460Z,69.40
2023-02-11T02:53:05.305Z,69.31
2023-02-11T02:55:39.812Z,69.37
2023-02-11T02:57:59.303Z,69.38
2023-02-11T03:00:28.659Z,69.39
2023-02-11T03:02:40.494Z,69.55
2023-02-11T03:05:02.486Z,69.47
2023-02-11T03:07:22.172Z,69.45
2023-02-11T03:09:36.380Z,69.37
2023-02-11T03:11:40.584Z,69.27
2023-02-11T03:13:48.543Z,69.37
2023-02-11T03:15:55.572Z,69.49
2023-02-11T03:18:02.263Z,69.44
2023-02-11T03:20:07.426Z,69.46
2023-02-11T03:22:25.604Z,69.36
2023-02-11T03:24:34.832Z,69.32
2023-02-11T03:26:43.074Z,69.21
2023-02-11T03:29:03.747Z,69.12
2023-02-11T03:31:22.029Z,69.29
2023-02-11T03:33:29.291Z,69.20
2023-02-11T03:35:46.747Z,69.26
2023-02-11T03:37:57.958Z,69.20
2023-02-11T03:40:06.711Z,69.15
2023-02-11T03:42:11.360Z,69.15
2023-02-11T03:44:16.403Z,69.16
2023-02-11T03:46:25.786Z,69.26
2023-02-11T03:48:33.104Z,69.29
2023-02-11T03:50:37.271Z,69.15
2023-02-11T03:52:40.202Z,69.14
2023-02-11T03:54:46.496Z,69.23
2023-02-11T03:56:54.421Z,69.33
2023-02-11T03:58:58.094Z,69.43
2023-02-11T04:01:02.616Z,69.49
2023-02-11T04:03:06.166Z,69.29
2023-02-11T04:05:15.036Z,69.35
2023-02-11T04:07:17.922Z,69.24
2023-02-11T04:09:20.630Z,69.37
2023-02-11T04:11:23.320Z,69.30
2023-02-11T04:13:26.284Z,69.36
2023-02-11T04:15:28.920Z,69.31
2023-02-11T04:17:31.533Z,69.43
2023-02-11T04:19:34.236Z,69.35
2023-02-11T04:21:36.910Z,69.26
2023-02-11T04:23:39.732Z,69.32
2023-02-11T04:25:43.117Z,69.45
2023-02-11T04:27:46.246Z,69.49
2023-02-11T04:29:49.699Z,69.37
2023-02-11T04:31:52.448Z,69.28
2023-02-11T04:33:55.722Z,69.24
2023-02-11T04:35:58.545Z,69.16
2023-02-11T04:38:01.886Z,69.37
2023-02-11T04:40:05.133Z,69.54
2023-02-11T04:42:07.916Z,69.60
2023-02-11T04:44:10.962Z,69.53
2023-02-11T04:46:13.693Z,69.53
2023-02-11T04:48:16.405Z,69.37
2023-02-11T04:50:19.142Z,69.48
2023-02-11T04:52:23.530Z,69.52
2023-02-11T04:54:27.195Z,69.51
2023-02-11T04:56:30.248Z,69.47
2023-02-11T04:58:32.973Z,69.53
2023-02-11T05:00:36.311Z,69.71
2023-02-11T05:02:39.404Z,69.58
2023-02-11T05:04:42.086Z,69.58
2023-02-11T05:06:44.717Z,69.66
2023-02-11T05:08:47.482Z,69.86
2023-02-11T05:10:50.264Z,69.87
2023-02-11T05:12:55.404Z,69.91
2023-02-11T05:15:01.423Z,69.87
2023-02-11T05:17:07.080Z,69.74
2023-02-11T05:19:10.060Z,69.80
2023-02-11T05:21:16.352Z,69.89
2023-02-11T05:23:20.779Z,69.65
2023-02-11T05:25:23.666Z,69.60
2023-02-11T05:27:26.287Z,69.55
2023-02-11T05:29:28.918Z,69.37
2023-02-11T05:31:32.757Z,69.63
2023-02-11T05:33:35.786Z,69.80
2023-02-11T05:35:38.570Z,69.88
2023-02-11T05:37:41.146Z,69.93
2023-02-11T05:39:43.800Z,70.16
2023-02-11T05:41:46.449Z,70.24
2023-02-11T05:43:52.529Z,70.38
2023-02-11T05:45:56.190Z,70.33
2023-02-11T05:47:59.633Z,70.43
2023-02-11T05:50:02.651Z,70.30
2023-02-11T05:52:05.287Z,70.33
2023-02-11T05:54:09.200Z,70.21
2023-02-11T05:56:14.524Z,70.14
2023-02-11T05:58:19.261Z,70.25
2023-02-11T06:00:22.272Z,70.04
2023-02-11T06:02:25.833Z,70.02
2023-02-11T06:04:29.725Z,70.15
2023-02-11T06:06:33.754Z,70.12
2023-02-11T06:08:39.066Z,70.23
2023-02-11T06:10:45.504Z,70.09
2023-02-11T06:12:48.750Z,70.12
2023-02-11T06:14:52.256Z,70.12
2023-02-11T06:16:56.770Z,70.10
2023-02-11T06:19:00.253Z,70.13
2023-02-11T06:21:07.879Z,70.07
2023-02-11T06:23:10.564Z,70.09
2023-02-11T06:25:13.788Z,70.08
2023-02-11T06:27:17.517Z,70.00
2023-02-11T06:29:20.722Z,70.07
2023-02-11T06:31:23.758Z,69.89
2023-02-11T06:33:26.572Z,69.94
2023-02-11T06:35:29.420Z,69.95
2023-02-11T06:37:34.697Z,69.94
2023-02-11T06:39:37.785Z,69.97
2023-02-11T06:41:40.911Z,70.14
2023-02-11T06:43:44.926Z,70.14
2023-02-11T06:45:54.544Z,70.21
2023-02-11T06:47:57.743Z,70.17
2023-02-11T06:50:03.149Z,70.26
2023-02-11T06:52:06.203Z,70.30
2023-02-11T06:54:09.506Z,70.28
2023-02-11T06:56:16.147Z,70.36
2023-02-11T06:58:18.822Z,70.31
2023-02-11T07:00:22.305Z,70.69
2023-02-11T07:02:25.001Z,70.59
2023-02-11T07:04:27.683Z,70.60
2023-02-11T07:06:31.715Z,70.55
2023-02-11T07:08:37.547Z,70.35
2023-02-11T07:10:41.054Z,70.42
2023-02-11T07:12:44.130Z,70.32
2023-02-11T07:14:46.906Z,70.25
2023-02-11T07:16:49.941Z,70.29
2023-02-11T07:18:52.846Z,70.36
2023-02-11T07:20:55.420Z,70.21
2023-02-11T07:23:00.027Z,70.23
2023-02-11T07:25:02.812Z,70.28
2023-02-11T07:27:05.456Z,70.20
2023-02-11T07:29:08.376Z,70.09
2023-02-11T07:31:14.091Z,70.22
2023-02-11T07:33:17.141Z,70.22
2023-02-11T07:35:27.562Z,70.20
2023-02-11T07:37:30.397Z,70.29
2023-02-11T07:39:33.144Z,70.29
2023-02-11T07:41:37.862Z,70.04
2023-02-11T07:43:41.864Z,70.27
2023-02-11T07:45:44.950Z,70.15
2023-02-11T07:47:47.650Z,70.01
2023-02-11T07:49:51.060Z,70.11
2023-02-11T07:51:53.869Z,70.15
2023-02-11T07:53:58.758Z,70.29
2023-02-11T07:56:03.278Z,70.24
2023-02-11T07:58:05.998Z,70.34
2023-02-11T08:00:09.411Z,70.48
2023-02-11T08:02:15.031Z,70.35
2023-02-11T08:04:17.816Z,70.64
2023-02-11T08:06:22.464Z,70.61
2023-02-11T08:08:28.334Z,70.67
2023-02-11T08:10:31.273Z,70.86
2023-02-11T08:12:34.500Z,70.84
2023-02-11T08:14:37.540Z,70.75
2023-02-11T08:16:41.531Z,70.66
2023-02-11T08:18:44.659Z,70.67
2023-02-11T08:20:47.402Z,70.65
2023-02-11T08:22:50.300Z,70.58
2023-02-11T08:24:52.990Z,70.53
2023-02-11T08:26:55.640Z,70.52
2023-02-11T08:28:59.204Z,70.44
2023-02-11T08:31:10.048Z,70.32
2023-02-11T08:33:13.238Z,70.23
2023-02-11T08:35:15.858Z,70.00
2023-02-11T08:37:20.266Z,69.88
2023-02-11T08:39:23.079Z,69.90
2023-02-11T08:41:26.774Z,69.98
2023-02-11T08:43:29.960Z,70.05
2023-02-11T08:45:36.037Z,70.23
2023-02-11T08:47:39.815Z,70.09
2023-02-11T08:49:42.504Z,70.03
2023-02-11T08:51:47.273Z,70.08
2023-02-11T08:53:51.572Z,70.09
2023-02-11T08:55:55.809Z,69.96
2023-02-11T08:57:58.426Z,69.93
2023-02-11T09:00:01.268Z,69.95
2023-02-11T09:02:03.939Z,69.82
2023-02-11T09:04:06.868Z,69.92
2023-02-11T09:06:11.684Z,69.90
2023-02-11T09:08:16.908Z,69.65
2023-02-11T09:10:20.328Z,69.78
2023-02-11T09:12:23.146Z,69.55
2023-02-11T09:14:26.332Z,69.49
2023-02-11T09:16:32.010Z,69.45
2023-02-11T09:18:34.724Z,69.49
2023-02-11T09:20:37.748Z,69.32
2023-02-11T09:22:40.365Z,69.39
2023-02-11T09:24:43.001Z,69.33
2023-02-11T09:26:45.656Z,69.24
2023-02-11T09:28:49.531Z,69.12
2023-02-11T09:30:52.423Z,69.22
2023-02-11T09:32:55.227Z,68.99
2023-02-11T09:34:57.807Z,68.87
2023-02-11T09:37:00.412Z,69.19
2023-02-11T09:39:05.644Z,68.91
2023-02-11T09:41:23.802Z,69.11
2023-02-11T09:43:45.659Z,69.17
2023-02-11T09:45:50.141Z,69.21
2023-02-11T09:47:56.872Z,69.32
2023-02-11T09:50:06.612Z,69.35
2023-02-11T09:52:34.095Z,69.11
2023-02-11T09:54:52.068Z,69.05
2023-02-11T09:56:56.926Z,69.19
2023-02-11T09:58:59.793Z,69.01
2023-02-11T10:01:19.383Z,68.96
2023-02-11T10:03:41.407Z,68.99
2023-02-11T10:06:27.840Z,68.81
2023-02-11T10:08:42.356Z,68.77
2023-02-11T10:10:54.704Z,68.74
2023-02-11T10:13:03.273Z,68.45
2023-02-11T10:15:32.614Z,68.52
2023-02-11T10:17:44.812Z,68.40
2023-02-11T10:20:02.830Z,68.33
2023-02-11T10:22:18.329Z,68.47
2023-02-11T10:24:22.144Z,68.58
2023-02-11T10:26:30.919Z,68.44
2023-02-11T10:28:35.025Z,68.28
2023-02-11T10:30:46.638Z,68.43
2023-02-11T10:32:59.704Z,68.36
2023-02-11T10:35:10.268Z,68.39
2023-02-11T10:37:14.789Z,68.37
2023-02-11T10:39:23.898Z,68.35
2023-02-11T10:41:33.190Z,68.04
2023-02-11T10:43:37.053Z,67.94
2023-02-11T10:46:00.292Z,68.27
2023-02-11T10:48:06.388Z,68.07
2023-02-11T10:50:23.411Z,68.00
2023-02-11T10:52:31.743Z,67.94
2023-02-11T10:54:34.388Z,67.57
2023-02-11T10:56:44.489Z,67.50
2023-02-11T10:58:57.543Z,67.80
2023-02-11T11:01:01.588Z,67.63
2023-02-11T11:03:18.821Z,67.58
2023-02-11T11:05:28.604Z,67.70
2023-02-11T11:07:33.890Z,67.71
2023-02-11T11:09:47.373Z,67.71
2023-02-11T11:11:53.893Z,67.68
2023-02-11T11:13:59.441Z,67.85
2023-02-11T11:16:09.930Z,67.64
2023-02-11T11:18:23.016Z,67.76
2023-02-11T11:20:29.016Z,67.62
2023-02-11T11:22:31.845Z,67.69
2023-02-11T11:24:46.602Z,67.70
2023-02-11T11:26:55.782Z,67.81
2023-02-11T11:29:08.054Z,67.76
2023-02-11T11:31:24.644Z,67.78
2023-02-11T11:33:31.134Z,67.69
2023-02-11T11:35:33.962Z,67.71
2023-02-11T11:37:38.762Z,67.53
2023-02-11T11:39:42.728Z,67.59
2023-02-11T11:42:01.127Z,67.58
2023-02-11T11:44:25.405Z,67.69
2023-02-11T11:46:42.838Z,67.68
2023-02-11T11:48:50.092Z,67.85
2023-02-11T11:51:02.213Z,67.86
2023-02-11T11:53:16.832Z,67.78
2023-02-11T11:55:27.337Z,67.71
2023-02-11T11:57:31.372Z,67.84
2023-02-11T11:59:34.292Z,67.96
2023-02-11T12:01:46.120Z,67.73
2023-02-11T12:04:23.257Z,67.72
2023-02-11T12:06:35.683Z,67.90
2023-02-11T12:08:59.533Z,67.97
2023-02-11T12:11:17.895Z,67.92
2023-02-11T12:13:26.084Z,67.74
2023-02-11T12:16:02.885Z,67.66
2023-02-11T12:18:38.611Z,67.55
2023-02-11T12:21:06.541Z,67.56
2023-02-11T12:23:30.843Z,67.71
2023-02-11T12:25:51.088Z,67.84
2023-02-11T12:28:03.292Z,67.73
2023-02-11T12:30:15.333Z,67.69
2023-02-11T12:32:36.417Z,67.70
2023-02-11T12:35:07.306Z,67.54
2023-02-11T12:37:31.689Z,67.60
2023-02-11T12:39:45.189Z,67.75
2023-02-11T12:42:23.627Z,67.78
2023-02-11T12:45:03.998Z,67.84
2023-02-11T12:47:17.948Z,67.80
2023-02-11T12:50:00.731Z,67.85
2023-02-11T12:52:36.279Z,67.95
2023-02-11T12:54:52.180Z,68.11
2023-02-11T12:57:04.061Z,68.04
2023-02-11T12:59:15.135Z,67.96
2023-02-11T13:01:21.709Z,68.06
2023-02-11T13:03:35.206Z,67.87
2023-02-11T13:05:51.382Z,67.78
2023-02-11T13:08:02.043Z,67.73
2023-02-11T13:10:13.679Z,67.64
2023-02-11T13:12:36.419Z,67.72
2023-02-11T13:14:41.170Z,67.73
2023-02-11T13:16:52.128Z,67.54
2023-02-11T13:19:10.319Z,67.76
2023-02-11T13:21:38.901Z,67.69
2023-02-11T13:24:06.706Z,67.70
2023-02-11T13:26:19.136Z,67.73
2023-02-11T13:28:34.648Z,67.86
2023-02-11T13:30:46.773Z,67.85
2023-02-11T13:33:00.561Z,67.78
2023-02-11T13:35:03.722Z,67.79
2023-02-11T13:37:26.616Z,67.77
2023-02-11T13:39:29.288Z,67.91
2023-02-11T13:41:39.146Z,67.84
2023-02-11T13:43:44.246Z,68.05
2023-02-11T13:45:49.503Z,68.32
2023-02-11T13:47:58.571Z,68.19
2023-02-11T13:50:06.468Z,68.03
2023-02-11T13:52:31.615Z,68.13
2023-02-11T13:54:39.591Z,67.81
2023-02-11T13:56:44.198Z,68.07
2023-02-11T13:58:49.652Z,68.07
2023-02-11T14:00:52.909Z,68.05
2023-02-11T14:03:30.000Z,68.01
2023-02-11T14:05:52.620Z,68.10
2023-02-11T14:08:37.462Z,68.09
2023-02-11T14:10:41.180Z,68.24
2023-02-11T14:13:04.063Z,68.22
2023-02-11T14:15:07.987Z,68.00
2023-02-11T14:17:10.912Z,68.07
2023-02-11T14:19:44.484Z,68.10
2023-02-11T14:21:47.909Z,68.14
2023-02-11T14:23:56.183Z,68.15
2023-02-11T14:26:28.795Z,68.33
2023-02-11T14:28:34.405Z,68.00
2023-02-11T14:30:48.710Z,68.11
2023-02-11T14:33:03.787Z,67.90
2023-02-11T14:35:16.028Z,67.92
2023-02-11T14:37:33.958Z,67.96
2023-02-11T14:39:52.777Z,68.11
2023-02-11T14:41:56.138Z,68.05
2023-02-11T14:44:04.264Z,67.96
2023-02-11T14:46:08.496Z,67.82
2023-02-11T14:48:17.836Z,67.96
2023-02-11T14:50:26.945Z,67.98
2023-02-11T14:52:33.018Z,68.03
2023-02-11T14:54:37.035Z,68.12
2023-02-11T14:56:42.299Z,67.88
2023-02-11T14:58:51.776Z,67.93
2023-02-11T15:01:01.422Z,67.90
2023-02-11T15:03:05.042Z,67.77
2023-02-11T15:05:34.703Z,67.87
2023-02-11T15:07:50.536Z,67.72
2023-02-11T15:09:54.374Z,67.54
2023-02-11T15:11:58.264Z,67.56
2023-02-11T15:14:11.064Z,67.70
2023-02-11T15:16:28.737Z,67.53
2023-02-11T15:18:42.120Z,67.50
2023-02-11T15:20:45.224Z,67.59
2023-02-11T15:22:54.802Z,67.67
2023-02-11T15:25:06.965Z,67.47
2023-02-11T15:27:18.607Z,67.67
2023-02-11T15:29:26.858Z,67.83
2023-02-11T15:31:35.082Z,67.80
2023-02-11T15:33:38.223Z,67.84
2023-02-11T15:35:42.842Z,67.92
2023-02-11T15:37:48.831Z,67.73
2023-02-11T15:40:07.652Z,67.58
2023-02-11T15:42:19.096Z,67.69
2023-02-11T15:44:30.269Z,67.83
2023-02-11T15:46:39.954Z,67.58
2023-02-11T15:48:52.575Z,67.68
2023-02-11T15:51:03.685Z,67.65
2023-02-11T15:53:31.612Z,67.69
2023-02-11T15:55:35.664Z,67.65
2023-02-11T15:57:53.896Z,67.87
2023-02-11T15:59:58.743Z,67.69
2023-02-11T16:02:17.440Z,67.71
2023-02-11T16:04:23.455Z,67.75
2023-02-11T16:06:42.650Z,67.86
2023-02-11T16:09:20.794Z,67.80
2023-02-11T16:11:38.893Z,67.93
2023-02-11T16:13:46.500Z,67.78
2023-02-11T16:15:58.659Z,68.14
2023-02-11T16:18:04.404Z,67.85
2023-02-11T16:20:17.698Z,67.83
2023-02-11T16:22:30.456Z,67.89
2023-02-11T16:24:35.915Z,68.18
2023-02-11T16:26:44.032Z,68.16
2023-02-11T16:28:51.204Z,67.94
2023-02-11T16:30:56.845Z,68.09
2023-02-11T16:33:00.955Z,68.04
2023-02-11T16:35:10.852Z,67.97
2023-02-11T16:37:13.753Z,67.97
2023-02-11T16:39:18.146Z,68.00
2023-02-11T16:41:21.886Z,68.00
2023-02-11T16:43:24.669Z,67.78
2023-02-11T16:45:28.519Z,67.94
2023-02-11T16:47:32.249Z,68.11
2023-02-11T16:49:41.585Z,68.13
2023-02-11T16:51:48.436Z,68.09
2023-02-11T16:53:51.338Z,68.02
2023-02-11T16:55:54.413Z,68.24
2023-02-11T16:57:58.391Z,68.29
2023-02-11T17:00:01.202Z,68.17
2023-02-11T17:02:04.130Z,68.19
2023-02-11T17:04:17.882Z,68.10
2023-02-11T17:06:21.438Z,68.26
2023-02-11T17:08:24.285Z,68.22
2023-02-11T17:10:27.092Z,68.43
2023-02-11T17:12:31.013Z,68.44
2023-02-11T17:14:34.337Z,68.31
2023-02-11T17:16:37.192Z,68.34
2023-02-11T17:18:40.129Z,68.35
2023-02-11T17:20:44.301Z,68.43
2023-02-11T17:22:48.221Z,68.43
2023-02-11T17:24:55.010Z,68.52
2023-02-11T17:26:59.418Z,68.41
2023-02-11T17:29:09.055Z,68.49
2023-02-11T17:31:12.649Z,68.45
2023-02-11T17:33:19.021Z,68.49
2023-02-11T17:35:22.499Z,68.46
2023-02-11T17:37:25.821Z,68.39
2023-02-11T17:39:29.454Z,68.53
2023-02-11T17:41:33.293Z,68.33
2023-02-11T17:43:36.713Z,68.49
2023-02-11T17:45:42.763Z,68.50
2023-02-11T17:47:46.149Z,68.47
2023-02-11T17:49:49.329Z,68.50
2023-02-11T17:51:52.766Z,68.38
2023-02-11T17:53:59.197Z,68.35
2023-02-11T17:56:06.404Z,68.51
2023-02-11T17:58:09.473Z,68.25
2023-02-11T18:00:13.098Z,68.30
2023-02-11T18:02:16.245Z,68.35
2023-02-11T18:04:19.925Z,68.38
2023-02-11T18:06:23.149Z,68.59
2023-02-11T18:08:27.837Z,68.44
2023-02-11T18:10:31.980Z,68.54
2023-02-11T18:12:36.335Z,68.59
2023-02-11T18:14:43.290Z,68.79
2023-02-11T18:16:48.990Z,68.39
2023-02-11T18:18:56.219Z,68.53
2023-02-11T18:21:01.404Z,68.37
2023-02-11T18:23:05.485Z,68.54
2023-02-11T18:25:13.346Z,68.66
2023-02-11T18:27:16.798Z,68.61
2023-02-11T18:29:19.675Z,68.52
2023-02-11T18:31:22.858Z,68.35
2023-02-11T18:33:27.501Z,68.62
2023-02-11T18:35:32.001Z,68.39
2023-02-11T18:37:34.686Z,68.29
2023-02-11T18:39:40.945Z,68.55
2023-02-11T18:41:47.456Z,68.47
2023-02-11T18:43:58.467Z,68.49
2023-02-11T18:46:09.554Z,68.48
2023-02-11T18:48:15.487Z,68.48
2023-02-11T18:50:22.779Z,68.84
2023-02-11T18:52:26.371Z,68.55
2023-02-11T18:54:29.849Z,68.60
2023-02-11T18:56:34.195Z,68.75
2023-02-11T18:58:41.302Z,68.72
2023-02-11T19:00:47.506Z,68.63
2023-02-11T19:02:53.037Z,68.61
2023-02-11T19:04:57.610Z,68.73
2023-02-11T19:07:03.801Z,68.56
2023-02-11T19:09:11.232Z,68.52
2023-02-11T19:11:16.245Z,68.47
2023-02-11T19:13:19.613Z,68.40
2023-02-11T19:15:24.043Z,68.62
2023-02-11T19:17:27.937Z,68.70
2023-02-11T19:19:36.878Z,68.46
2023-02-11T19:21:44.164Z,68.64
2023-02-11T19:23:51.896Z,68.74
2023-02-11T19:25:58.311Z,68.76
2023-02-11T19:28:03.226Z,68.83
2023-02-11T19:30:08.154Z,68.64
2023-02-11T19:32:12.868Z,68.70
2023-02-11T19:34:17.598Z,68.63
2023-02-11T19:36:21.850Z,68.67
2023-02-11T19:38:28.452Z,68.86
2023-02-11T19:40:34.804Z,68.74
2023-02-11T19:42:39.209Z,68.65
2023-02-11T19:44:42.431Z,68.66
2023-02-11T19:46:52.776Z,68.60
2023-02-11T19:48:55.775Z,68.61
2023-02-11T19:50:59.015Z,68.59
2023-02-11T19:53:02.688Z,68.57
2023-02-11T19:55:05.678Z,68.85
2023-02-11T19:57:09.857Z,68.52
2023-02-11T19:59:15.496Z,68.68
2023-02-11T20:01:21.984Z,68.91
2023-02-11T20:03:25.560Z,68.77
2023-02-11T20:05:30.674Z,68.68
2023-02-11T20:07:38.040Z,68.81
2023-02-11T20:09:42.643Z,68.94
2023-02-11T20:11:49.069Z,68.92
2023-02-11T20:13:53.088Z,68.96
2023-02-11T20:15:56.004Z,68.97
2023-02-11T20:18:01.707Z,68.95
2023-02-11T20:20:11.329Z,69.04
2023-02-11T20:22:16.594Z,69.03
2023-02-11T20:24:22.734Z,68.97
2023-02-11T20:26:32.997Z,68.94
2023-02-11T20:28:37.267Z,68.91
2023-02-11T20:30:41.479Z,68.92
2023-02-11T20:32:44.790Z,68.87
2023-02-11T20:34:47.678Z,68.67
2023-02-11T20:36:52.324Z,68.63
2023-02-11T20:38:56.684Z,68.65
2023-02-11T20:41:07.990Z,68.53
2023-02-11T20:43:12.328Z,68.63
2023-02-11T20:45:16.248Z,68.70
2023-02-11T20:47:20.387Z,68.79
2023-02-11T20:49:25.191Z,68.75
2023-02-11T20:51:33.048Z,68.50
2023-02-11T20:53:39.997Z,68.45
2023-02-11T20:55:44.047Z,68.42
2023-02-11T20:57:47.383Z,68.44
2023-02-11T20:59:50.498Z,68.46
2023-02-11T21:01:56.038Z,68.52
2023-02-11T21:04:06.795Z,68.57
2023-02-11T21:06:11.862Z,68.45
2023-02-11T21:08:16.238Z,68.47
2023-02-11T21:10:24.129Z,68.58
2023-02-11T21:12:28.646Z,68.50
2023-02-11T21:14:34.199Z,68.53
2023-02-11T21:16:47.715Z,68.53
2023-02-11T21:18:52.981Z,68.52
2023-02-11T21:20:59.127Z,68.61
2023-02-11T21:23:02.403Z,68.65
2023-02-11T21:25:08.690Z,68.80
2023-02-11T21:27:12.347Z,68.62
2023-02-11T21:29:17.225Z,68.64
2023-02-11T21:31:34.061Z,68.91
2023-02-11T21:33:39.791Z,68.92
2023-02-11T21:35:43.248Z,68.79
2023-02-11T21:37:48.168Z,68.92
2023-02-11T21:39:51.029Z,68.66
2023-02-11T21:41:55.973Z,68.89
2023-02-11T21:43:59.820Z,68.89
2023-02-11T21:46:08.861Z,68.66
2023-02-11T21:48:13.208Z,68.84
2023-02-11T21:50:16.169Z,68.81
2023-02-11T21:52:19.558Z,68.78
2023-02-11T21:54:25.910Z,68.77
2023-02-11T21:56:31.466Z,69.05
2023-02-11T21:58:35.706Z,68.86
2023-02-11T22:00:40.890Z,69.01
2023-02-11T22:02:44.229Z,69.13
2023-02-11T22:04:47.866Z,68.91
2023-02-11T22:06:52.782Z,69.00
2023-02-11T22:09:10.730Z,69.10
2023-02-11T22:11:14.525Z,69.22
2023-02-11T22:13:17.137Z,69.29
2023-02-11T22:15:20.487Z,69.21
2023-02-11T22:17:23.398Z,69.21
2023-02-11T22:19:26.070Z,69.27
2023-02-11T22:21:29.697Z,69.39
2023-02-11T22:23:33.439Z,69.26
2023-02-11T22:25:36.848Z,69.38
2023-02-11T22:27:40.828Z,69.21
2023-02-11T22:29:43.904Z,69.39
2023-02-11T22:31:47.720Z,69.17
2023-02-11T22:33:50.363Z,69.00
2023-02-11T22:36:06.489Z,69.20
2023-02-11T22:38:10.507Z,69.16
2023-02-11T22:40:14.457Z,69.15
2023-02-11T22:42:17.477Z,69.26
2023-02-11T22:44:21.898Z,69.11
2023-02-11T22:46:25.264Z,69.20
2023-02-11T22:48:28.280Z,69.23
2023-02-11T22:50:31.025Z,69.33
2023-02-11T22:52:36.331Z,69.52
2023-02-11T22:54:38.955Z,69.26
2023-02-11T22:56:42.555Z,69.24
2023-02-11T22:58:45.310Z,69.32
2023-02-11T23:00:48.336Z,69.33
2023-02-11T23:02:51.115Z,69.50
2023-02-11T23:04:54.523Z,69.57
2023-02-11T23:06:57.529Z,69.43
2023-02-11T23:09:00.308Z,69.36
2023-02-11T23:11:09.806Z,69.46
2023-02-11T23:13:12.914Z,69.26
2023-02-11T23:15:15.501Z,69.41
2023-02-11T23:17:19.631Z,69.29
2023-02-11T23:19:22.857Z,69.11
2023-02-11T23:21:28.669Z,69.17
2023-02-11T23:23:31.465Z,69.17
2023-02-11T23:25:34.946Z,69.18
2023-02-11T23:27:38.067Z,68.82
2023-02-11T23:29:40.896Z,69.17
2023-02-11T23:31:46.231Z,68.96
2023-02-11T23:33:49.311Z,68.92
2023-02-11T23:35:52.153Z,69.02
2023-02-11T23:37:55.055Z,68.77
2023-02-11T23:39:57.978Z,68.99
2023-02-11T23:42:01.595Z,68.94
2023-02-11T23:44:04.794Z,68.88
2023-02-11T23:46:07.970Z,69.10
2023-02-11T23:48:10.898Z,69.02
2023-02-11T23:50:14.230Z,69.00
2023-02-11T23:52:16.878Z,69.14
2023-02-11T23:54:20.027Z,69.16
2023-02-11T23:56:28.206Z,69.03
2023-02-11T23:58:30.962Z,69.26
